Time;durP1;ratioP1;P1;durP2;ratioP2;P2;SDS_P1;SDS_P2;PMS_P1;PMS_P2;Temp;Humidity;BMP_temperature;BMP_pressure;BME280_temperature;BME280_humidity;BME280_pressure;Samples;Min_cycle;Max_cycle;Signal;HPM_P1;HPM_P2
2022/11/02 00:00:44;;;;;;;4.57;4.17;;;12.40;99.90;;;;;;5110505;27;20206;-69
2022/11/02 00:03:11;;;;;;;4.63;4.23;;;12.40;99.90;;;;;;5110598;27;20320;-69
2022/11/02 00:05:38;;;;;;;4.77;4.30;;;12.30;99.90;;;;;;5110770;28;20213;-69
2022/11/02 00:08:05;;;;;;;4.50;4.10;;;12.30;99.90;;;;;;5110486;28;20205;-69
2022/11/02 00:10:33;;;;;;;5.40;4.07;;;12.30;99.90;;;;;;5126453;27;20229;-70
2022/11/02 00:13:00;;;;;;;6.00;4.13;;;12.30;99.90;;;;;;5131307;27;20198;-70
2022/11/02 00:15:30;;;;;;;4.60;4.20;;;12.40;99.90;;;;;;5131033;27;20206;-70
2022/11/02 00:18:01;;;;;;;4.87;4.40;;;12.40;99.90;;;;;;5130593;27;20236;-70
2022/11/02 00:20:28;;;;;;;4.57;3.87;;;12.40;99.90;;;;;;5130937;27;20285;-70
2022/11/02 00:22:57;;;;;;;4.97;4.47;;;12.40;99.90;;;;;;5130980;27;20231;-70
2022/11/02 00:25:26;;;;;;;4.53;4.10;;;12.40;99.90;;;;;;5130924;27;20248;-69
2022/11/02 00:27:54;;;;;;;4.20;3.90;;;12.50;99.90;;;;;;5110402;27;20968;-68
2022/11/02 00:30:21;;;;;;;4.53;4.03;;;12.50;99.90;;;;;;5110218;28;20203;-68
2022/11/02 00:32:48;;;;;;;4.67;4.27;;;12.50;99.90;;;;;;5122865;27;20205;-68
2022/11/02 00:35:15;;;;;;;4.23;3.90;;;12.60;99.90;;;;;;5130669;27;20214;-68
2022/11/02 00:37:41;;;;;;;5.20;4.07;;;12.60;99.90;;;;;;5128889;27;20206;-68
2022/11/02 00:40:09;;;;;;;6.57;4.10;;;12.60;99.90;;;;;;5131021;27;20205;-68
2022/11/02 00:42:36;;;;;;;4.60;4.20;;;12.60;99.90;;;;;;5129725;27;20301;-68
2022/11/02 00:45:05;;;;;;;7.07;4.10;;;12.60;99.90;;;;;;5129060;27;20221;-68
2022/11/02 00:47:32;;;;;;;3.90;3.60;;;12.50;99.90;;;;;;5127702;27;20204;-68
2022/11/02 00:49:58;;;;;;;4.57;4.13;;;12.50;99.90;;;;;;5130892;27;21101;-69
2022/11/02 00:52:25;;;;;;;8.37;4.20;;;12.50;99.90;;;;;;5130674;27;20233;-68
2022/11/02 00:54:52;;;;;;;4.57;4.20;;;12.40;99.90;;;;;;5129641;27;20251;-68
2022/11/02 00:57:19;;;;;;;4.50;4.00;;;12.40;99.90;;;;;;5114944;27;20724;-68
2022/11/02 00:59:45;;;;;;;4.40;4.00;;;12.40;99.90;;;;;;5109882;28;20206;-68
2022/11/02 01:02:14;;;;;;;4.23;3.93;;;12.40;99.90;;;;;;5109731;28;20216;-68
2022/11/02 01:04:40;;;;;;;4.90;4.50;;;12.50;99.90;;;;;;5110165;28;20191;-67
2022/11/02 01:07:07;;;;;;;5.33;3.90;;;12.40;99.90;;;;;;5109618;28;20215;-68
2022/11/02 01:09:34;;;;;;;5.57;3.80;;;12.30;99.90;;;;;;5109523;28;20206;-68
2022/11/02 01:12:01;;;;;;;5.50;3.97;;;12.20;99.90;;;;;;5115013;27;20221;-68
2022/11/02 01:14:27;;;;;;;4.47;4.10;;;12.20;99.90;;;;;;5129803;27;20209;-68
2022/11/02 01:16:56;;;;;;;4.47;4.07;;;12.20;99.90;;;;;;5129911;27;20212;-68
2022/11/02 01:19:25;;;;;;;4.20;3.83;;;12.20;99.90;;;;;;5130065;27;20242;-68
2022/11/02 01:21:51;;;;;;;3.97;3.47;;;12.30;99.90;;;;;;5129941;27;20205;-68
2022/11/02 01:24:18;;;;;;;4.33;3.70;;;12.30;99.90;;;;;;5129578;27;20202;-68
2022/11/02 01:26:45;;;;;;;3.80;3.33;;;12.30;99.90;;;;;;5118881;27;20216;-69
2022/11/02 01:29:12;;;;;;;3.77;3.47;;;12.30;99.90;;;;;;5109505;28;20221;-68
2022/11/02 01:31:39;;;;;;;3.90;3.60;;;12.20;99.90;;;;;;5108500;28;20715;-69
2022/11/02 01:34:06;;;;;;;3.87;3.57;;;12.20;99.90;;;;;;5110413;27;20213;-70
2022/11/02 01:36:34;;;;;;;6.17;4.03;;;12.20;99.90;;;;;;5108937;28;20198;-69
2022/11/02 01:39:01;;;;;;;4.30;3.50;;;12.20;99.90;;;;;;5115571;27;20193;-69
2022/11/02 01:41:28;;;;;;;4.53;3.30;;;12.30;99.90;;;;;;5129199;27;21099;-69
2022/11/02 01:43:57;;;;;;;4.93;3.07;;;12.30;99.90;;;;;;5129382;27;20206;-69
2022/11/02 01:46:31;;;;;;;3.50;3.20;;;12.30;99.90;;;;;;5129121;27;20206;-67
2022/11/02 01:49:03;;;;;;;5.17;3.43;;;12.30;99.90;;;;;;5129113;27;20198;-68
2022/11/02 01:51:35;;;;;;;3.90;3.17;;;12.30;99.90;;;;;;5129401;27;20221;-68
2022/11/02 01:54:06;;;;;;;5.50;3.60;;;12.20;99.90;;;;;;5114210;27;20732;-68
2022/11/02 01:56:34;;;;;;;4.00;3.13;;;12.20;99.90;;;;;;5108449;28;20229;-68
2022/11/02 01:59:09;;;;;;;5.70;3.20;;;12.20;99.90;;;;;;5108941;28;20209;-68
2022/11/02 02:01:36;;;;;;;3.73;3.03;;;12.10;99.90;;;;;;5108451;28;20236;-68
2022/11/02 02:04:04;;;;;;;3.67;3.20;;;12.10;99.90;;;;;;5108405;28;20238;-68
2022/11/02 02:06:31;;;;;;;4.60;2.70;;;12.10;99.90;;;;;;5108115;28;20704;-68
2022/11/02 02:09:04;;;;;;;3.47;2.80;;;12.10;99.90;;;;;;5108453;28;20198;-68
2022/11/02 02:11:33;;;;;;;2.90;2.70;;;12.10;99.90;;;;;;5108532;27;20259;-68
2022/11/02 02:14:03;;;;;;;3.13;2.83;;;12.10;99.90;;;;;;5116980;27;20202;-68
2022/11/02 02:16:57;;;;;;;4.00;3.43;;;12.10;99.90;;;;;;5128324;27;20605;-68
2022/11/02 02:19:33;;;;;;;3.17;2.83;;;12.10;99.90;;;;;;5128676;27;20205;-68
2022/11/02 02:22:15;;;;;;;3.93;2.80;;;12.10;99.90;;;;;;5128828;27;20754;-68
2022/11/02 02:24:51;;;;;;;4.40;2.83;;;12.10;99.90;;;;;;5128726;27;20190;-68
2022/11/02 02:27:23;;;;;;;3.47;2.83;;;12.10;99.90;;;;;;5128776;27;20205;-68
2022/11/02 02:30:00;;;;;;;3.87;3.20;;;12.10;99.90;;;;;;5128316;27;20193;-68
2022/11/02 02:32:36;;;;;;;3.50;2.70;;;12.10;99.90;;;;;;5128599;27;20245;-68
2022/11/02 02:35:17;;;;;;;2.70;2.50;;;12.10;99.90;;;;;;5128801;27;20199;-68
2022/11/02 02:37:51;;;;;;;6.73;2.70;;;12.10;99.90;;;;;;5128052;27;20185;-68
2022/11/02 02:40:22;;;;;;;2.80;2.60;;;12.10;99.90;;;;;;5128640;27;20190;-68
2022/11/02 02:42:54;;;;;;;3.27;2.70;;;12.10;99.90;;;;;;5128180;27;20190;-68
2022/11/02 02:45:29;;;;;;;2.60;2.40;;;12.10;99.90;;;;;;5127948;27;20675;-68
2022/11/02 02:48:05;;;;;;;2.77;2.50;;;12.10;99.90;;;;;;5128449;27;20204;-68
2022/11/02 02:50:37;;;;;;;2.97;2.60;;;12.10;99.90;;;;;;5112241;27;20205;-68
2022/11/02 02:53:06;;;;;;;2.50;2.30;;;12.10;99.90;;;;;;5111852;28;20211;-68
2022/11/02 02:55:40;;;;;;;2.70;2.50;;;12.10;99.90;;;;;;5128294;27;20678;-69
2022/11/02 02:58:13;;;;;;;4.50;2.63;;;12.10;99.90;;;;;;5128350;27;20193;-69
2022/11/02 03:00:42;;;;;;;3.50;2.30;;;12.00;99.90;;;;;;5128004;27;20194;-69
2022/11/02 03:03:17;;;;;;;4.30;2.40;;;12.00;99.90;;;;;;5128025;27;20336;-68
2022/11/02 03:05:43;;;;;;;2.60;2.27;;;12.00;99.90;;;;;;5128412;27;20189;-69
2022/11/02 03:08:14;;;;;;;2.17;1.97;;;11.90;99.90;;;;;;5132586;27;20212;-68
2022/11/02 03:10:47;;;;;;;4.77;2.43;;;11.90;99.90;;;;;;5132392;27;20201;-69
2022/11/02 03:13:37;;;;;;;4.60;2.90;;;11.90;99.90;;;;;;5132163;27;20263;-68
2022/11/02 03:16:11;;;;;;;2.93;2.50;;;11.90;99.90;;;;;;5130415;27;20201;-68
2022/11/02 03:18:46;;;;;;;4.57;2.33;;;11.90;99.90;;;;;;5126064;27;20212;-68
2022/11/02 03:21:24;;;;;;;3.87;2.20;;;11.90;99.90;;;;;;5111492;28;20671;-68
2022/11/02 03:23:55;;;;;;;2.47;2.10;;;11.90;99.90;;;;;;5111812;28;20194;-68
2022/11/02 03:26:27;;;;;;;3.00;1.97;;;11.90;99.90;;;;;;5112957;27;20194;-68
2022/11/02 03:29:01;;;;;;;8.40;2.43;;;11.80;99.90;;;;;;5111838;28;20200;-68
2022/11/02 03:31:36;;;;;;;5.50;2.30;;;11.80;99.90;;;;;;5111512;27;20564;-68
2022/11/02 03:34:10;;;;;;;2.13;2.03;;;11.80;99.90;;;;;;5117991;27;20208;-68
2022/11/02 03:36:43;;;;;;;2.40;2.20;;;11.80;99.90;;;;;;5111313;28;20194;-68
2022/11/02 03:39:12;;;;;;;3.73;2.40;;;11.80;99.90;;;;;;5128665;27;20664;-67
2022/11/02 03:41:42;;;;;;;4.53;2.20;;;11.70;99.90;;;;;;5131845;27;20209;-68
2022/11/02 03:44:12;;;;;;;2.27;1.97;;;11.70;99.90;;;;;;5131986;27;20209;-68
2022/11/02 03:46:43;;;;;;;4.67;2.40;;;11.70;99.90;;;;;;5131443;27;20229;-68
2022/11/02 03:49:14;;;;;;;5.50;2.30;;;11.60;99.90;;;;;;5131589;27;20190;-68
2022/11/02 03:51:44;;;;;;;3.77;2.13;;;11.70;99.90;;;;;;5131596;27;20236;-68
2022/11/02 03:54:17;;;;;;;2.83;2.03;;;11.60;99.90;;;;;;5131603;27;20213;-68
2022/11/02 03:56:48;;;;;;;3.03;1.80;;;11.60;99.90;;;;;;5131153;27;20224;-68
2022/11/02 03:59:15;;;;;;;2.87;1.97;;;11.60;99.90;;;;;;5131297;27;20192;-68
2022/11/02 04:01:46;;;;;;;3.50;2.17;;;11.60;99.90;;;;;;5131153;27;20667;-68
2022/11/02 04:04:13;;;;;;;2.07;1.70;;;11.60;99.90;;;;;;5131093;27;20306;-68
2022/11/02 04:06:42;;;;;;;2.43;2.00;;;11.60;99.90;;;;;;5131503;27;20209;-68
2022/11/02 04:09:09;;;;;;;5.10;2.00;;;11.60;99.90;;;;;;5131334;27;20202;-68
2022/11/02 04:14:39;;;;;;;1.83;1.73;;;11.50;99.90;;;;;;5130572;27;20205;-68
2022/11/02 04:19:54;;;;;;;2.30;2.10;;;11.50;99.90;;;;;;5130485;27;20781;-68
2022/11/02 04:25:18;;;;;;;2.50;2.10;;;11.60;99.90;;;;;;5110348;28;20254;-68
2022/11/02 04:27:46;;;;;;;2.83;2.00;;;11.50;99.90;;;;;;5117630;27;20742;-68
2022/11/02 04:30:14;;;;;;;2.00;1.80;;;11.50;99.90;;;;;;5127424;27;20286;-67
2022/11/02 04:35:30;;;;;;;2.60;1.80;;;11.40;99.90;;;;;;5110418;28;20627;-68
2022/11/02 04:40:41;;;;;;;2.73;1.80;;;11.40;99.90;;;;;;5110186;28;20197;-68
2022/11/02 04:43:08;;;;;;;5.57;2.47;;;11.30;99.90;;;;;;5127234;27;20288;-68
2022/11/02 04:45:36;;;;;;;5.23;1.67;;;11.20;99.90;;;;;;5130548;27;20221;-68
2022/11/02 04:48:06;;;;;;;3.50;1.80;;;11.30;99.90;;;;;;5130744;27;20212;-68
2022/11/02 04:50:33;;;;;;;3.50;1.97;;;11.20;99.90;;;;;;5130961;27;20198;-68
2022/11/02 04:53:01;;;;;;;3.20;1.70;;;11.30;99.90;;;;;;5130716;27;20239;-68
2022/11/02 04:55:28;;;;;;;2.63;1.80;;;11.30;99.90;;;;;;5130116;27;20213;-68
2022/11/02 04:57:55;;;;;;;4.33;1.73;;;11.30;99.90;;;;;;5127007;27;20204;-68
2022/11/02 05:00:23;;;;;;;3.97;2.10;;;11.10;99.90;;;;;;5129890;27;20216;-68
2022/11/02 05:02:50;;;;;;;6.47;2.00;;;10.90;99.90;;;;;;5130232;27;20233;-68
2022/11/02 05:05:18;;;;;;;6.63;1.97;;;10.90;99.90;;;;;;5130219;27;20701;-68
2022/11/02 05:07:45;;;;;;;5.53;2.00;;;10.90;99.90;;;;;;5130298;27;20208;-68
2022/11/02 05:10:12;;;;;;;4.47;2.30;;;11.00;99.90;;;;;;5130418;27;20220;-68
2022/11/02 05:12:39;;;;;;;2.97;1.70;;;11.00;99.90;;;;;;5129903;27;20218;-67
2022/11/02 05:15:06;;;;;;;5.27;1.73;;;11.00;99.90;;;;;;5129932;27;20205;-67
2022/11/02 05:17:33;;;;;;;2.93;1.80;;;11.00;99.90;;;;;;5130059;27;20197;-68
2022/11/02 05:20:00;;;;;;;7.77;1.97;;;11.00;99.90;;;;;;5125266;27;20652;-68
2022/11/02 05:22:28;;;;;;;4.67;1.83;;;11.00;99.90;;;;;;5129562;27;20209;-67
2022/11/02 05:24:54;;;;;;;3.33;1.90;;;11.00;99.90;;;;;;5130130;27;20228;-68
2022/11/02 05:27:21;;;;;;;4.77;2.23;;;11.00;99.90;;;;;;5129620;27;20224;-68
2022/11/02 05:29:48;;;;;;;6.57;2.23;;;11.10;99.90;;;;;;5128817;27;20209;-67
2022/11/02 05:32:14;;;;;;;6.27;2.10;;;11.10;99.90;;;;;;5129189;27;21095;-67
2022/11/02 05:34:41;;;;;;;3.60;2.00;;;11.00;99.90;;;;;;5129647;27;20213;-68
2022/11/02 05:37:08;;;;;;;7.10;2.53;;;10.90;99.90;;;;;;5129462;27;20212;-68
2022/11/02 05:39:37;;;;;;;3.93;2.43;;;10.90;99.90;;;;;;5129195;27;20205;-68
2022/11/02 05:42:04;;;;;;;6.70;1.70;;;10.80;99.90;;;;;;5129586;27;20208;-68
2022/11/02 05:44:30;;;;;;;5.77;2.77;;;10.80;99.90;;;;;;5128858;27;20205;-68
2022/11/02 05:46:57;;;;;;;3.63;2.10;;;10.80;99.90;;;;;;5128633;27;20579;-68
2022/11/02 05:49:24;;;;;;;8.20;2.30;;;10.70;99.90;;;;;;5129355;27;20210;-68
2022/11/02 05:51:51;;;;;;;5.07;1.97;;;10.80;99.90;;;;;;5129331;27;20209;-67
2022/11/02 05:54:18;;;;;;;3.60;2.10;;;10.80;99.90;;;;;;5129336;27;20204;-68
2022/11/02 05:56:46;;;;;;;3.73;2.00;;;10.90;99.90;;;;;;5129299;27;20212;-68
2022/11/02 05:59:13;;;;;;;4.37;1.93;;;10.90;99.90;;;;;;5128851;27;20212;-68
2022/11/02 06:01:40;;;;;;;4.43;2.10;;;10.90;99.90;;;;;;5129294;27;20217;-68
2022/11/02 06:04:06;;;;;;;6.07;2.30;;;11.00;99.90;;;;;;5128814;27;20245;-67
2022/11/02 06:06:33;;;;;;;3.03;2.23;;;11.00;99.90;;;;;;5128876;27;20209;-68
2022/11/02 06:09:00;;;;;;;7.47;2.10;;;11.00;99.90;;;;;;5129052;27;20561;-67
2022/11/02 06:11:28;;;;;;;5.17;2.10;;;11.00;99.90;;;;;;5128746;27;20211;-68
2022/11/02 06:13:57;;;;;;;3.20;1.77;;;11.20;99.90;;;;;;5128490;27;20730;-68
2022/11/02 06:16:23;;;;;;;7.03;2.00;;;11.10;99.90;;;;;;5115736;27;20619;-68
2022/11/02 06:18:50;;;;;;;6.57;1.67;;;11.00;99.90;;;;;;5115742;27;20209;-68
2022/11/02 06:21:18;;;;;;;6.07;2.10;;;11.00;99.90;;;;;;5128746;27;20207;-68
2022/11/02 06:23:46;;;;;;;4.03;1.80;;;11.00;99.90;;;;;;5128302;27;20573;-68
2022/11/02 06:26:13;;;;;;;3.63;1.87;;;11.00;99.90;;;;;;5122447;27;20209;-68
2022/11/02 06:28:40;;;;;;;2.07;1.60;;;11.00;99.90;;;;;;5108061;28;20216;-68
2022/11/02 06:31:08;;;;;;;4.67;2.20;;;11.00;99.90;;;;;;5107647;28;20207;-68
2022/11/02 06:33:35;;;;;;;5.60;1.97;;;11.00;99.90;;;;;;5113940;27;20221;-68
2022/11/02 06:36:02;;;;;;;6.07;2.43;;;11.00;99.90;;;;;;5108100;27;20228;-69
2022/11/02 06:38:29;;;;;;;4.20;1.93;;;11.10;99.90;;;;;;5109657;28;20209;-69
2022/11/02 06:40:56;;;;;;;3.73;1.70;;;11.10;99.90;;;;;;5128437;27;20220;-68
2022/11/02 06:43:23;;;;;;;6.37;2.03;;;11.10;99.90;;;;;;5128521;27;21008;-69
2022/11/02 06:45:50;;;;;;;4.43;2.00;;;11.10;99.90;;;;;;5127935;27;20198;-68
2022/11/02 06:48:18;;;;;;;2.93;1.97;;;11.10;99.90;;;;;;5128791;27;20216;-68
2022/11/02 06:50:44;;;;;;;2.23;1.50;;;11.10;99.90;;;;;;5128457;27;20201;-68
2022/11/02 06:53:11;;;;;;;7.33;1.83;;;11.10;99.90;;;;;;5128393;27;20232;-68
2022/11/02 06:55:38;;;;;;;4.17;1.77;;;11.10;99.90;;;;;;5127760;27;20959;-68
2022/11/02 06:58:05;;;;;;;5.57;1.70;;;11.10;99.90;;;;;;5128207;27;20213;-68
2022/11/02 07:00:32;;;;;;;5.60;2.10;;;11.20;99.90;;;;;;5127995;27;20762;-68
2022/11/02 07:03:02;;;;;;;5.40;1.80;;;11.10;99.90;;;;;;5128124;27;20247;-68
2022/11/02 07:05:31;;;;;;;4.47;1.70;;;11.00;99.90;;;;;;5128489;27;20679;-68
2022/11/02 07:07:58;;;;;;;7.70;1.97;;;11.00;99.90;;;;;;5128388;27;20616;-68
2022/11/02 07:10:25;;;;;;;5.87;2.07;;;11.10;99.90;;;;;;5127937;27;20694;-69
2022/11/02 07:12:53;;;;;;;5.17;2.10;;;11.10;99.90;;;;;;5113003;27;20225;-69
2022/11/02 07:15:20;;;;;;;3.00;1.60;;;11.10;99.90;;;;;;5107636;28;20717;-68
2022/11/02 07:17:47;;;;;;;6.03;2.27;;;11.20;99.90;;;;;;5108004;28;20198;-68
2022/11/02 07:20:14;;;;;;;8.83;2.03;;;11.20;99.90;;;;;;5127476;28;20210;-69
2022/11/02 07:22:42;;;;;;;7.03;1.93;;;11.30;99.90;;;;;;5128009;27;20205;-68
2022/11/02 07:25:09;;;;;;;5.63;1.60;;;11.30;99.90;;;;;;5127930;27;20205;-68
2022/11/02 07:27:40;;;;;;;4.37;1.90;;;11.40;99.90;;;;;;5110314;27;20230;-68
2022/11/02 07:30:07;;;;;;;3.03;1.80;;;11.50;99.90;;;;;;5107460;28;20206;-68
2022/11/02 07:32:40;;;;;;;4.27;1.60;;;11.60;99.90;;;;;;5107298;28;20202;-67
2022/11/02 07:35:07;;;;;;;4.93;2.40;;;11.70;99.90;;;;;;5107669;28;20186;-68
2022/11/02 07:37:34;;;;;;;4.73;1.77;;;11.80;99.90;;;;;;5107069;28;20202;-68
2022/11/02 07:40:03;;;;;;;4.17;2.03;;;11.90;99.90;;;;;;5107736;28;20206;-67
2022/11/02 07:42:30;;;;;;;3.60;1.80;;;12.00;99.90;;;;;;5107233;28;20221;-68
2022/11/02 07:44:57;;;;;;;7.17;1.77;;;12.00;99.90;;;;;;5121048;28;20200;-67
2022/11/02 07:47:23;;;;;;;3.57;2.03;;;12.00;99.90;;;;;;5128028;27;20206;-68
2022/11/02 07:49:50;;;;;;;2.53;1.90;;;12.10;99.90;;;;;;5127728;27;20206;-68
2022/11/02 07:52:17;;;;;;;6.20;2.03;;;12.00;99.90;;;;;;5128878;27;20584;-67
2022/11/02 07:54:44;;;;;;;5.80;2.30;;;12.00;99.90;;;;;;5131172;27;20270;-68
2022/11/02 07:57:12;;;;;;;6.80;2.27;;;12.00;99.90;;;;;;5131383;27;20215;-67
2022/11/02 07:59:38;;;;;;;5.37;2.27;;;11.90;99.90;;;;;;5131085;27;20205;-68
2022/11/02 08:02:06;;;;;;;2.43;1.97;;;11.80;99.90;;;;;;5131693;27;20197;-68
2022/11/02 08:04:33;;;;;;;7.63;1.90;;;11.70;99.90;;;;;;5131087;27;20233;-68
2022/11/02 08:07:00;;;;;;;6.63;2.00;;;11.70;99.90;;;;;;5131358;27;20197;-68
2022/11/02 08:09:27;;;;;;;5.97;1.70;;;11.70;99.90;;;;;;5113808;27;20576;-68
2022/11/02 08:11:56;;;;;;;5.50;2.57;;;11.80;99.90;;;;;;5110608;28;20209;-68
2022/11/02 08:14:24;;;;;;;3.77;2.17;;;11.70;99.90;;;;;;5110703;28;20237;-68
2022/11/02 08:16:51;;;;;;;4.97;1.83;;;11.80;99.90;;;;;;5112725;27;20292;-68
2022/11/02 08:19:18;;;;;;;6.77;2.37;;;11.90;99.90;;;;;;5110501;27;20205;-68
2022/11/02 08:21:45;;;;;;;5.17;2.07;;;12.00;99.90;;;;;;5110820;28;20210;-68
2022/11/02 08:24:12;;;;;;;5.23;2.13;;;11.90;99.90;;;;;;5108399;27;20207;-67
2022/11/02 08:26:38;;;;;;;4.87;1.80;;;11.90;99.90;;;;;;5112474;27;20291;-67
2022/11/02 08:29:05;;;;;;;9.63;2.43;;;11.90;99.90;;;;;;5128965;27;20237;-67
2022/11/02 08:31:33;;;;;;;5.13;1.70;;;11.90;99.90;;;;;;5128860;27;20232;-68
2022/11/02 08:34:00;;;;;;;7.13;2.33;;;11.90;99.90;;;;;;5128699;27;20233;-68
2022/11/02 08:36:27;;;;;;;5.37;2.10;;;11.80;99.90;;;;;;5129053;27;20201;-67
2022/11/02 08:38:54;;;;;;;4.10;1.77;;;11.90;99.90;;;;;;5112913;27;20210;-67
2022/11/02 08:41:20;;;;;;;6.43;1.93;;;11.90;99.90;;;;;;5108110;28;20206;-67
2022/11/02 08:43:47;;;;;;;7.53;2.13;;;11.90;99.90;;;;;;5108229;28;20238;-68
2022/11/02 08:46:14;;;;;;;6.50;1.93;;;12.00;99.90;;;;;;5111254;27;20209;-67
2022/11/02 08:48:42;;;;;;;4.37;1.90;;;12.10;99.90;;;;;;5129229;27;20206;-67
2022/11/02 08:51:09;;;;;;;7.00;2.40;;;12.10;99.90;;;;;;5128456;27;20208;-67
2022/11/02 08:53:36;;;;;;;5.03;2.10;;;12.20;99.90;;;;;;5128576;27;20229;-67
2022/11/02 08:56:03;;;;;;;5.80;2.00;;;12.40;99.90;;;;;;5123958;27;20309;-67
2022/11/02 08:58:29;;;;;;;6.43;1.90;;;12.50;99.90;;;;;;5111201;27;20259;-67
2022/11/02 09:00:56;;;;;;;3.83;1.50;;;12.60;99.90;;;;;;5127716;27;20205;-67
2022/11/02 09:03:24;;;;;;;4.33;1.80;;;12.80;99.90;;;;;;5127213;27;20237;-67
2022/11/02 09:05:57;;;;;;;6.40;1.73;;;12.80;99.90;;;;;;5107093;27;20210;-67
2022/11/02 09:08:24;;;;;;;4.43;1.83;;;13.00;99.90;;;;;;5107726;28;20194;-68
2022/11/02 09:10:51;;;;;;;8.87;2.57;;;13.10;99.90;;;;;;5120052;27;20198;-67
2022/11/02 09:13:23;;;;;;;3.43;1.70;;;13.20;99.90;;;;;;5127749;27;20711;-67
2022/11/02 09:15:52;;;;;;;13.47;2.90;;;13.30;99.90;;;;;;5128278;27;20200;-67
2022/11/02 09:18:19;;;;;;;9.37;2.30;;;13.40;99.90;;;;;;5128469;27;20224;-67
2022/11/02 09:20:47;;;;;;;2.97;1.70;;;13.40;99.90;;;;;;5127910;27;20250;-67
2022/11/02 09:23:15;;;;;;;5.83;1.90;;;13.60;99.90;;;;;;5120500;27;20213;-68
2022/11/02 09:25:42;;;;;;;7.03;2.20;;;13.70;99.90;;;;;;5108383;27;20206;-68
2022/11/02 09:28:09;;;;;;;8.57;2.17;;;13.70;99.90;;;;;;5127360;27;20193;-68
2022/11/02 09:30:36;;;;;;;4.23;1.67;;;13.80;99.90;;;;;;5127202;27;20206;-67
2022/11/02 09:33:05;;;;;;;5.97;2.10;;;13.90;99.90;;;;;;5127387;27;20217;-67
2022/11/02 09:35:34;;;;;;;5.60;2.03;;;14.00;99.90;;;;;;5126927;27;20205;-67
2022/11/02 09:38:01;;;;;;;5.93;2.20;;;14.00;99.90;;;;;;5119914;27;20210;-68
2022/11/02 09:40:35;;;;;;;2.87;1.77;;;14.10;99.90;;;;;;5106667;28;20297;-68
2022/11/02 09:43:10;;;;;;;3.97;1.80;;;14.20;99.90;;;;;;5107071;28;20190;-68
2022/11/02 09:45:53;;;;;;;8.07;2.13;;;14.30;99.90;;;;;;5107081;28;20208;-68
2022/11/02 09:48:26;;;;;;;4.17;2.27;;;14.30;99.90;;;;;;5120679;27;20193;-68
2022/11/02 09:50:58;;;;;;;7.17;2.10;;;14.30;99.90;;;;;;5126844;27;20198;-68
2022/11/02 09:53:31;;;;;;;7.57;2.00;;;14.30;99.90;;;;;;5127251;27;20218;-67
2022/11/02 09:56:00;;;;;;;5.47;1.97;;;14.40;99.90;;;;;;5122690;27;20229;-68
2022/11/02 09:58:33;;;;;;;5.90;2.00;;;14.60;99.90;;;;;;5106928;28;20851;-67
2022/11/02 10:01:17;;;;;;;4.77;1.80;;;14.70;99.90;;;;;;5106535;28;20202;-67
2022/11/02 10:04:04;;;;;;;6.37;2.10;;;14.80;99.90;;;;;;5106442;27;20869;-67
2022/11/02 10:06:32;;;;;;;6.10;1.77;;;14.80;99.90;;;;;;5106365;28;20284;-67
2022/11/02 10:09:07;;;;;;;8.17;1.77;;;14.80;99.90;;;;;;5110952;27;20720;-67
2022/11/02 10:11:45;;;;;;;6.53;2.10;;;14.80;99.90;;;;;;5126368;27;20196;-67
2022/11/02 10:14:17;;;;;;;6.83;1.97;;;14.90;99.90;;;;;;5126750;27;20221;-67
2022/11/02 10:16:49;;;;;;;6.37;2.43;;;15.00;99.90;;;;;;5126278;27;20201;-67
2022/11/02 10:19:21;;;;;;;4.53;2.00;;;14.90;99.90;;;;;;5124642;27;20193;-67
2022/11/02 10:21:51;;;;;;;3.60;1.90;;;15.10;99.90;;;;;;5125676;27;20562;-67
2022/11/02 10:24:29;;;;;;;7.53;2.00;;;15.10;99.90;;;;;;5125958;27;20209;-67
2022/11/02 10:27:04;;;;;;;5.57;1.80;;;15.20;99.90;;;;;;5114306;27;20216;-67
2022/11/02 10:29:42;;;;;;;5.80;2.23;;;15.30;99.90;;;;;;5105810;28;20232;-67
2022/11/02 10:32:11;;;;;;;4.83;2.00;;;15.30;99.90;;;;;;5106256;28;20198;-67
2022/11/02 10:34:39;;;;;;;8.17;2.30;;;15.30;99.90;;;;;;5123614;27;20229;-67
2022/11/02 10:37:28;;;;;;;5.83;1.80;;;15.40;99.90;;;;;;5127103;27;20201;-67
2022/11/02 10:40:07;;;;;;;6.87;1.93;;;15.50;99.90;;;;;;5106027;28;20201;-67
2022/11/02 10:42:48;;;;;;;4.63;1.63;;;15.70;99.90;;;;;;5105582;28;20205;-67
2022/11/02 10:45:37;;;;;;;5.97;2.00;;;15.70;99.90;;;;;;5105324;28;20198;-67
2022/11/02 10:48:12;;;;;;;5.70;2.03;;;15.80;99.90;;;;;;5105681;28;20247;-67
2022/11/02 10:50:47;;;;;;;7.20;2.27;;;15.90;99.90;;;;;;5124844;28;20208;-67
2022/11/02 10:53:17;;;;;;;4.27;1.40;;;15.90;99.90;;;;;;5125945;27;20641;-67
2022/11/02 10:55:56;;;;;;;5.63;1.70;;;16.00;99.90;;;;;;5126863;27;20218;-67
2022/11/02 10:58:28;;;;;;;4.43;1.70;;;16.10;99.90;;;;;;5107348;27;20213;-67
2022/11/02 11:01:05;;;;;;;4.27;1.70;;;15.90;99.90;;;;;;5105771;28;20572;-67
2022/11/02 11:03:32;;;;;;;5.03;1.97;;;15.90;99.90;;;;;;5114666;28;20225;-67
2022/11/02 11:06:01;;;;;;;7.63;2.07;;;15.70;99.90;;;;;;5126410;27;20589;-67
2022/11/02 11:08:40;;;;;;;6.83;2.30;;;15.70;99.90;;;;;;5126401;27;20201;-67
2022/11/02 11:11:13;;;;;;;4.83;1.90;;;15.60;99.90;;;;;;5126272;27;20359;-67
2022/11/02 11:13:41;;;;;;;6.77;2.00;;;15.60;99.90;;;;;;5126204;27;20228;-67
2022/11/02 11:16:09;;;;;;;7.83;2.20;;;15.50;99.90;;;;;;5125613;27;20737;-68
2022/11/02 11:18:37;;;;;;;4.87;2.13;;;15.30;99.90;;;;;;5120743;27;20221;-68
2022/11/02 11:21:05;;;;;;;5.50;1.90;;;15.30;99.90;;;;;;5106254;28;20548;-68
2022/11/02 11:23:31;;;;;;;5.10;2.07;;;15.30;99.90;;;;;;5125648;28;20193;-67
2022/11/02 11:26:00;;;;;;;8.33;1.73;;;15.30;99.90;;;;;;5121834;27;20217;-67
2022/11/02 11:28:30;;;;;;;4.53;1.63;;;15.30;99.90;;;;;;5110498;27;20214;-67
2022/11/02 11:31:14;;;;;;;4.63;1.73;;;15.20;99.90;;;;;;5130180;27;20208;-67
2022/11/02 11:33:51;;;;;;;4.57;1.50;;;15.20;99.90;;;;;;5129723;27;20197;-68
2022/11/02 11:36:23;;;;;;;2.57;1.60;;;15.20;99.90;;;;;;5129778;27;20196;-67
2022/11/02 11:38:52;;;;;;;6.67;1.83;;;15.10;99.90;;;;;;5129657;27;20229;-67
2022/11/02 11:41:19;;;;;;;4.27;2.07;;;15.00;99.90;;;;;;5129852;27;20204;-67
2022/11/02 11:43:48;;;;;;;3.83;1.60;;;15.10;99.90;;;;;;5129984;27;20201;-67
2022/11/02 11:46:17;;;;;;;5.10;2.47;;;15.20;99.90;;;;;;5129812;27;20251;-67
2022/11/02 11:48:47;;;;;;;4.33;2.23;;;15.20;99.90;;;;;;5129789;27;20202;-67
2022/11/02 11:51:30;;;;;;;7.43;2.10;;;15.20;99.90;;;;;;5129786;27;20194;-67
2022/11/02 11:54:22;;;;;;;4.10;1.73;;;15.10;99.90;;;;;;5114586;27;20265;-67
2022/11/02 11:56:51;;;;;;;3.33;1.73;;;15.10;99.90;;;;;;5093735;28;20216;-67
2022/11/02 11:59:22;;;;;;;3.67;1.77;;;15.20;99.90;;;;;;5108643;28;20202;-67
2022/11/02 12:01:53;;;;;;;4.17;1.90;;;15.10;99.90;;;;;;5125634;27;20201;-67
2022/11/02 12:04:31;;;;;;;4.57;1.77;;;15.10;99.90;;;;;;5129388;27;20248;-67
2022/11/02 12:07:21;;;;;;;4.43;1.93;;;15.20;99.90;;;;;;5129429;27;20209;-67
2022/11/02 12:10:00;;;;;;;4.47;1.90;;;15.40;99.90;;;;;;5097504;27;20216;-67
2022/11/02 12:12:38;;;;;;;4.50;1.40;;;15.40;99.90;;;;;;5118289;27;20212;-67
2022/11/02 12:15:17;;;;;;;4.70;1.80;;;15.30;99.90;;;;;;5108282;28;20221;-67
2022/11/02 12:17:59;;;;;;;6.50;2.10;;;15.20;99.90;;;;;;5120904;27;20194;-67
2022/11/02 12:20:45;;;;;;;3.70;1.57;;;15.20;99.90;;;;;;5108300;28;20193;-67
2022/11/02 12:23:24;;;;;;;4.53;1.67;;;15.20;99.90;;;;;;5108043;28;20705;-67
2022/11/02 12:25:56;;;;;;;2.87;1.40;;;15.50;99.90;;;;;;5110909;27;20204;-67
2022/11/02 12:28:31;;;;;;;8.10;1.50;;;15.70;99.90;;;;;;5128587;27;20200;-67
2022/11/02 12:31:04;;;;;;;8.13;1.80;;;15.90;99.90;;;;;;5128571;27;20189;-67
2022/11/02 12:33:46;;;;;;;2.60;1.30;;;16.10;99.90;;;;;;5129122;27;20196;-67
2022/11/02 12:36:28;;;;;;;2.20;1.40;;;16.20;99.90;;;;;;5128940;27;20200;-67
2022/11/02 12:39:03;;;;;;;4.37;1.13;;;16.00;99.90;;;;;;5128166;27;20201;-67
2022/11/02 12:41:39;;;;;;;4.17;1.47;;;15.80;99.90;;;;;;5128360;27;20201;-67
2022/11/02 12:44:21;;;;;;;2.63;1.70;;;15.80;99.90;;;;;;5129024;27;20227;-67
2022/11/02 12:46:56;;;;;;;5.93;1.67;;;16.00;99.90;;;;;;5127133;27;20574;-67
2022/11/02 12:49:41;;;;;;;4.40;1.33;;;15.90;99.90;;;;;;5126614;27;20201;-67
2022/11/02 12:52:19;;;;;;;11.47;2.00;;;16.10;99.90;;;;;;5128255;27;20193;-67
2022/11/02 12:54:48;;;;;;;4.20;1.33;;;16.30;99.90;;;;;;5127839;27;20235;-67
2022/11/02 12:57:18;;;;;;;4.27;1.60;;;16.20;99.90;;;;;;5127899;27;20558;-67
2022/11/02 12:59:46;;;;;;;2.73;1.43;;;16.20;99.90;;;;;;5127704;27;20558;-67
2022/11/02 13:02:17;;;;;;;4.73;1.37;;;16.30;99.90;;;;;;5124581;27;20552;-68
2022/11/02 13:04:50;;;;;;;3.17;1.60;;;16.30;99.90;;;;;;5119117;27;20933;-67
2022/11/02 13:07:22;;;;;;;4.03;1.67;;;16.20;99.90;;;;;;5121874;27;20206;-68
2022/11/02 13:09:56;;;;;;;5.63;1.70;;;16.30;99.90;;;;;;5107641;27;20210;-68
2022/11/02 13:12:25;;;;;;;5.63;1.40;;;16.40;99.90;;;;;;5106800;27;20974;-67
2022/11/02 13:14:54;;;;;;;3.77;1.67;;;16.40;99.90;;;;;;5115049;27;20673;-67
2022/11/02 13:17:25;;;;;;;5.40;1.57;;;16.50;99.90;;;;;;5128658;27;20202;-68